sensor_id;sensor_type;location;lat;lon;timestamp;P1;durP1;ratioP1;P2;durP2;ratioP2
78187;SDS011;67456;41.872;21.602;2024-01-11T00:00:48;13.75;;;8.65;;
78187;SDS011;67456;41.872;21.602;2024-01-11T00:03:14;14.48;;;9.27;;
78187;SDS011;67456;41.872;21.602;2024-01-11T00:05:41;14.98;;;9.55;;
78187;SDS011;67456;41.872;21.602;2024-01-11T00:08:07;14.13;;;8.93;;
78187;SDS011;67456;41.872;21.602;2024-01-11T00:10:33;13.10;;;8.80;;
78187;SDS011;67456;41.872;21.602;2024-01-11T00:13:00;16.25;;;9.07;;
78187;SDS011;67456;41.872;21.602;2024-01-11T00:15:26;15.70;;;9.05;;
78187;SDS011;67456;41.872;21.602;2024-01-11T00:17:52;14.80;;;9.25;;
78187;SDS011;67456;41.872;21.602;2024-01-11T00:20:18;14.68;;;9.90;;
78187;SDS011;67456;41.872;21.602;2024-01-11T00:22:45;41.33;;;23.60;;
78187;SDS011;67456;41.872;21.602;2024-01-11T00:25:11;43.25;;;23.92;;
78187;SDS011;67456;41.872;21.602;2024-01-11T00:27:37;42.95;;;24.73;;
78187;SDS011;67456;41.872;21.602;2024-01-11T00:30:04;28.73;;;17.52;;
78187;SDS011;67456;41.872;21.602;2024-01-11T00:32:30;27.33;;;15.57;;
78187;SDS011;67456;41.872;21.602;2024-01-11T00:34:56;23.73;;;14.45;;
78187;SDS011;67456;41.872;21.602;2024-01-11T00:37:22;25.70;;;15.77;;
78187;SDS011;67456;41.872;21.602;2024-01-11T00:39:50;29.02;;;16.98;;
78187;SDS011;67456;41.872;21.602;2024-01-11T00:42:17;31.48;;;19.23;;
78187;SDS011;67456;41.872;21.602;2024-01-11T00:44:43;30.63;;;18.15;;
78187;SDS011;67456;41.872;21.602;2024-01-11T00:47:10;30.27;;;17.90;;
78187;SDS011;67456;41.872;21.602;2024-01-11T00:49:36;30.65;;;18.02;;
78187;SDS011;67456;41.872;21.602;2024-01-11T00:52:03;28.38;;;16.65;;
78187;SDS011;67456;41.872;21.602;2024-01-11T00:54:29;27.63;;;15.63;;
78187;SDS011;67456;41.872;21.602;2024-01-11T00:56:55;26.27;;;15.90;;
78187;SDS011;67456;41.872;21.602;2024-01-11T00:59:21;22.15;;;14.38;;
78187;SDS011;67456;41.872;21.602;2024-01-11T01:01:48;23.52;;;14.50;;
78187;SDS011;67456;41.872;21.602;2024-01-11T01:04:14;29.17;;;15.25;;
78187;SDS011;67456;41.872;21.602;2024-01-11T01:06:43;23.73;;;13.75;;
78187;SDS011;67456;41.872;21.602;2024-01-11T01:09:10;22.60;;;13.00;;
78187;SDS011;67456;41.872;21.602;2024-01-11T01:11:36;20.55;;;12.68;;
78187;SDS011;67456;41.872;21.602;2024-01-11T01:14:04;19.35;;;11.00;;
78187;SDS011;67456;41.872;21.602;2024-01-11T01:16:30;15.30;;;10.18;;
78187;SDS011;67456;41.872;21.602;2024-01-11T01:18:56;21.45;;;12.25;;
78187;SDS011;67456;41.872;21.602;2024-01-11T01:21:23;22.30;;;12.57;;
78187;SDS011;67456;41.872;21.602;2024-01-11T01:23:51;27.17;;;16.30;;
78187;SDS011;67456;41.872;21.602;2024-01-11T01:26:17;25.98;;;14.98;;
78187;SDS011;67456;41.872;21.602;2024-01-11T01:28:43;24.23;;;14.80;;
78187;SDS011;67456;41.872;21.602;2024-01-11T01:31:09;24.92;;;13.43;;
78187;SDS011;67456;41.872;21.602;2024-01-11T01:33:36;20.50;;;11.57;;
78187;SDS011;67456;41.872;21.602;2024-01-11T01:36:02;18.50;;;10.98;;
78187;SDS011;67456;41.872;21.602;2024-01-11T01:38:28;19.23;;;11.40;;
78187;SDS011;67456;41.872;21.602;2024-01-11T01:40:55;19.10;;;11.00;;
78187;SDS011;67456;41.872;21.602;2024-01-11T01:43:21;19.02;;;10.75;;
78187;SDS011;67456;41.872;21.602;2024-01-11T01:45:47;18.20;;;10.93;;
78187;SDS011;67456;41.872;21.602;2024-01-11T01:48:14;19.75;;;11.02;;
78187;SDS011;67456;41.872;21.602;2024-01-11T01:50:40;16.95;;;10.40;;
78187;SDS011;67456;41.872;21.602;2024-01-11T01:53:07;16.90;;;9.60;;
78187;SDS011;67456;41.872;21.602;2024-01-11T01:55:34;18.00;;;9.35;;
78187;SDS011;67456;41.872;21.602;2024-01-11T01:58:00;17.77;;;10.23;;
78187;SDS011;67456;41.872;21.602;2024-01-11T02:00:26;19.42;;;10.50;;
78187;SDS011;67456;41.872;21.602;2024-01-11T02:02:53;17.20;;;10.93;;
78187;SDS011;67456;41.872;21.602;2024-01-11T02:05:21;17.55;;;9.90;;
78187;SDS011;67456;41.872;21.602;2024-01-11T02:07:47;19.63;;;10.82;;
78187;SDS011;67456;41.872;21.602;2024-01-11T02:10:14;19.13;;;10.70;;
78187;SDS011;67456;41.872;21.602;2024-01-11T02:12:40;19.52;;;12.20;;
78187;SDS011;67456;41.872;21.602;2024-01-11T02:15:07;17.42;;;10.40;;
78187;SDS011;67456;41.872;21.602;2024-01-11T02:17:33;17.05;;;10.38;;
78187;SDS011;67456;41.872;21.602;2024-01-11T02:19:59;17.85;;;10.30;;
78187;SDS011;67456;41.872;21.602;2024-01-11T02:22:35;20.58;;;12.05;;
78187;SDS011;67456;41.872;21.602;2024-01-11T02:25:01;19.08;;;11.60;;
78187;SDS011;67456;41.872;21.602;2024-01-11T02:27:28;20.60;;;12.35;;
78187;SDS011;67456;41.872;21.602;2024-01-11T02:29:54;18.00;;;11.35;;
78187;SDS011;67456;41.872;21.602;2024-01-11T02:32:21;22.98;;;13.25;;
78187;SDS011;67456;41.872;21.602;2024-01-11T02:34:47;21.35;;;12.70;;
78187;SDS011;67456;41.872;21.602;2024-01-11T02:37:14;21.17;;;12.27;;
78187;SDS011;67456;41.872;21.602;2024-01-11T02:39:40;22.00;;;11.85;;
78187;SDS011;67456;41.872;21.602;2024-01-11T02:42:07;19.50;;;11.57;;
78187;SDS011;67456;41.872;21.602;2024-01-11T02:44:33;18.73;;;11.30;;
78187;SDS011;67456;41.872;21.602;2024-01-11T02:46:59;22.83;;;11.73;;
78187;SDS011;67456;41.872;21.602;2024-01-11T02:49:25;19.02;;;11.30;;
78187;SDS011;67456;41.872;21.602;2024-01-11T02:51:51;20.38;;;11.43;;
78187;SDS011;67456;41.872;21.602;2024-01-11T02:54:17;18.77;;;11.45;;
78187;SDS011;67456;41.872;21.602;2024-01-11T02:56:44;17.02;;;10.73;;
78187;SDS011;67456;41.872;21.602;2024-01-11T02:59:10;16.20;;;10.68;;
78187;SDS011;67456;41.872;21.602;2024-01-11T03:01:36;19.27;;;11.35;;
78187;SDS011;67456;41.872;21.602;2024-01-11T03:04:02;16.35;;;10.48;;
78187;SDS011;67456;41.872;21.602;2024-01-11T03:06:28;19.10;;;10.57;;
78187;SDS011;67456;41.872;21.602;2024-01-11T03:08:55;15.85;;;9.90;;
78187;SDS011;67456;41.872;21.602;2024-01-11T03:11:21;18.33;;;10.70;;
78187;SDS011;67456;41.872;21.602;2024-01-11T03:13:47;17.95;;;9.63;;
78187;SDS011;67456;41.872;21.602;2024-01-11T03:16:13;13.43;;;8.93;;
78187;SDS011;67456;41.872;21.602;2024-01-11T03:18:40;14.52;;;9.35;;
78187;SDS011;67456;41.872;21.602;2024-01-11T03:21:06;16.02;;;9.70;;
78187;SDS011;67456;41.872;21.602;2024-01-11T03:23:32;16.52;;;10.75;;
78187;SDS011;67456;41.872;21.602;2024-01-11T03:25:58;17.85;;;11.02;;
78187;SDS011;67456;41.872;21.602;2024-01-11T03:28:26;19.95;;;11.88;;
78187;SDS011;67456;41.872;21.602;2024-01-11T03:30:52;17.60;;;10.52;;
78187;SDS011;67456;41.872;21.602;2024-01-11T03:33:18;17.35;;;10.38;;
78187;SDS011;67456;41.872;21.602;2024-01-11T03:35:45;17.88;;;10.40;;
78187;SDS011;67456;41.872;21.602;2024-01-11T03:38:11;17.83;;;10.05;;
78187;SDS011;67456;41.872;21.602;2024-01-11T03:40:37;16.30;;;9.63;;
78187;SDS011;67456;41.872;21.602;2024-01-11T03:43:03;17.73;;;10.57;;
78187;SDS011;67456;41.872;21.602;2024-01-11T03:45:29;22.45;;;12.38;;
78187;SDS011;67456;41.872;21.602;2024-01-11T03:47:56;17.70;;;9.95;;
78187;SDS011;67456;41.872;21.602;2024-01-11T03:50:22;18.15;;;10.60;;
78187;SDS011;67456;41.872;21.602;2024-01-11T03:52:48;15.18;;;9.38;;
78187;SDS011;67456;41.872;21.602;2024-01-11T03:55:14;16.63;;;9.05;;
78187;SDS011;67456;41.872;21.602;2024-01-11T03:57:40;14.35;;;9.10;;
78187;SDS011;67456;41.872;21.602;2024-01-11T04:00:07;18.25;;;9.23;;
78187;SDS011;67456;41.872;21.602;2024-01-11T04:02:34;16.73;;;9.00;;
78187;SDS011;67456;41.872;21.602;2024-01-11T04:05:00;15.75;;;9.70;;
78187;SDS011;67456;41.872;21.602;2024-01-11T04:07:27;15.73;;;9.20;;
78187;SDS011;67456;41.872;21.602;2024-01-11T04:09:53;21.35;;;11.65;;
78187;SDS011;67456;41.872;21.602;2024-01-11T04:12:19;21.98;;;12.93;;
78187;SDS011;67456;41.872;21.602;2024-01-11T04:14:45;20.08;;;11.27;;
78187;SDS011;67456;41.872;21.602;2024-01-11T04:17:11;22.70;;;12.60;;
78187;SDS011;67456;41.872;21.602;2024-01-11T04:19:38;20.13;;;11.75;;
78187;SDS011;67456;41.872;21.602;2024-01-11T04:22:05;19.70;;;11.85;;
78187;SDS011;67456;41.872;21.602;2024-01-11T04:24:31;17.77;;;11.45;;
78187;SDS011;67456;41.872;21.602;2024-01-11T04:26:57;18.90;;;10.65;;
78187;SDS011;67456;41.872;21.602;2024-01-11T04:29:23;17.05;;;9.57;;
78187;SDS011;67456;41.872;21.602;2024-01-11T04:31:49;15.57;;;9.88;;
78187;SDS011;67456;41.872;21.602;2024-01-11T04:34:16;17.10;;;9.52;;
78187;SDS011;67456;41.872;21.602;2024-01-11T04:36:42;14.98;;;9.10;;
78187;SDS011;67456;41.872;21.602;2024-01-11T04:39:08;16.65;;;9.02;;
78187;SDS011;67456;41.872;21.602;2024-01-11T04:41:37;17.02;;;11.02;;
78187;SDS011;67456;41.872;21.602;2024-01-11T04:44:04;17.88;;;11.88;;
78187;SDS011;67456;41.872;21.602;2024-01-11T04:46:30;18.00;;;10.93;;
78187;SDS011;67456;41.872;21.602;2024-01-11T04:48:57;17.55;;;11.27;;
78187;SDS011;67456;41.872;21.602;2024-01-11T04:51:23;19.33;;;10.93;;
78187;SDS011;67456;41.872;21.602;2024-01-11T04:53:49;20.75;;;10.43;;
78187;SDS011;67456;41.872;21.602;2024-01-11T04:56:15;17.85;;;11.13;;
78187;SDS011;67456;41.872;21.602;2024-01-11T04:58:43;19.52;;;10.68;;
78187;SDS011;67456;41.872;21.602;2024-01-11T05:01:13;18.40;;;11.68;;
78187;SDS011;67456;41.872;21.602;2024-01-11T05:03:40;27.25;;;14.63;;
78187;SDS011;67456;41.872;21.602;2024-01-11T05:06:06;25.60;;;13.40;;
78187;SDS011;67456;41.872;21.602;2024-01-11T05:08:32;27.02;;;14.80;;
78187;SDS011;67456;41.872;21.602;2024-01-11T05:10:58;27.52;;;16.13;;
78187;SDS011;67456;41.872;21.602;2024-01-11T05:13:24;23.60;;;13.27;;
78187;SDS011;67456;41.872;21.602;2024-01-11T05:15:51;15.98;;;9.20;;
78187;SDS011;67456;41.872;21.602;2024-01-11T05:18:17;17.58;;;11.02;;
78187;SDS011;67456;41.872;21.602;2024-01-11T05:20:43;20.13;;;11.55;;
78187;SDS011;67456;41.872;21.602;2024-01-11T05:23:09;20.13;;;12.07;;
78187;SDS011;67456;41.872;21.602;2024-01-11T05:25:36;25.92;;;12.70;;
78187;SDS011;67456;41.872;21.602;2024-01-11T05:28:03;23.02;;;12.10;;
78187;SDS011;67456;41.872;21.602;2024-01-11T05:30:29;24.02;;;13.32;;
78187;SDS011;67456;41.872;21.602;2024-01-11T05:32:56;25.65;;;13.30;;
78187;SDS011;67456;41.872;21.602;2024-01-11T05:35:22;21.02;;;11.48;;
78187;SDS011;67456;41.872;21.602;2024-01-11T05:37:49;18.52;;;9.63;;
78187;SDS011;67456;41.872;21.602;2024-01-11T05:40:16;33.65;;;17.90;;
78187;SDS011;67456;41.872;21.602;2024-01-11T05:42:42;48.35;;;23.23;;
78187;SDS011;67456;41.872;21.602;2024-01-11T05:45:08;26.10;;;15.95;;
78187;SDS011;67456;41.872;21.602;2024-01-11T05:47:34;15.30;;;9.32;;
78187;SDS011;67456;41.872;21.602;2024-01-11T05:50:00;19.73;;;10.30;;
78187;SDS011;67456;41.872;21.602;2024-01-11T05:52:27;24.92;;;15.18;;
78187;SDS011;67456;41.872;21.602;2024-01-11T05:54:53;31.33;;;18.23;;
78187;SDS011;67456;41.872;21.602;2024-01-11T05:57:19;22.88;;;12.90;;
78187;SDS011;67456;41.872;21.602;2024-01-11T05:59:45;19.48;;;12.05;;
78187;SDS011;67456;41.872;21.602;2024-01-11T06:02:12;20.95;;;12.75;;
78187;SDS011;67456;41.872;21.602;2024-01-11T06:04:39;20.45;;;11.68;;
78187;SDS011;67456;41.872;21.602;2024-01-11T06:07:05;19.98;;;11.18;;
78187;SDS011;67456;41.872;21.602;2024-01-11T06:09:31;18.55;;;10.63;;
78187;SDS011;67456;41.872;21.602;2024-01-11T06:11:58;23.25;;;12.23;;
78187;SDS011;67456;41.872;21.602;2024-01-11T06:14:24;27.80;;;15.38;;
78187;SDS011;67456;41.872;21.602;2024-01-11T06:16:51;26.77;;;14.07;;
78187;SDS011;67456;41.872;21.602;2024-01-11T06:19:17;35.42;;;17.20;;
78187;SDS011;67456;41.872;21.602;2024-01-11T06:21:43;31.48;;;16.92;;
78187;SDS011;67456;41.872;21.602;2024-01-11T06:24:09;20.98;;;12.25;;
78187;SDS011;67456;41.872;21.602;2024-01-11T06:26:35;18.15;;;10.73;;
78187;SDS011;67456;41.872;21.602;2024-01-11T06:29:01;22.35;;;12.20;;
78187;SDS011;67456;41.872;21.602;2024-01-11T06:31:27;28.38;;;16.90;;
78187;SDS011;67456;41.872;21.602;2024-01-11T06:33:54;29.17;;;17.60;;
78187;SDS011;67456;41.872;21.602;2024-01-11T06:36:20;24.33;;;15.35;;
78187;SDS011;67456;41.872;21.602;2024-01-11T06:38:47;22.35;;;12.25;;
78187;SDS011;67456;41.872;21.602;2024-01-11T06:41:13;22.25;;;13.75;;
78187;SDS011;67456;41.872;21.602;2024-01-11T06:43:39;20.25;;;12.38;;
78187;SDS011;67456;41.872;21.602;2024-01-11T06:46:05;22.02;;;12.95;;
78187;SDS011;67456;41.872;21.602;2024-01-11T06:48:32;18.10;;;11.73;;
78187;SDS011;67456;41.872;21.602;2024-01-11T06:50:58;16.55;;;11.48;;
78187;SDS011;67456;41.872;21.602;2024-01-11T06:53:24;18.42;;;10.98;;
78187;SDS011;67456;41.872;21.602;2024-01-11T06:55:51;16.58;;;10.18;;
78187;SDS011;67456;41.872;21.602;2024-01-11T06:58:22;16.77;;;10.73;;
78187;SDS011;67456;41.872;21.602;2024-01-11T07:00:49;20.45;;;12.32;;
78187;SDS011;67456;41.872;21.602;2024-01-11T07:03:16;33.45;;;16.65;;
78187;SDS011;67456;41.872;21.602;2024-01-11T07:05:42;22.08;;;11.88;;
78187;SDS011;67456;41.872;21.602;2024-01-11T07:08:09;15.18;;;8.45;;
78187;SDS011;67456;41.872;21.602;2024-01-11T07:10:35;27.08;;;14.05;;
78187;SDS011;67456;41.872;21.602;2024-01-11T07:13:02;23.67;;;12.98;;
78187;SDS011;67456;41.872;21.602;2024-01-11T07:15:28;20.13;;;10.55;;
78187;SDS011;67456;41.872;21.602;2024-01-11T07:17:55;21.35;;;10.82;;
78187;SDS011;67456;41.872;21.602;2024-01-11T07:20:21;14.27;;;7.55;;
78187;SDS011;67456;41.872;21.602;2024-01-11T07:22:48;14.20;;;8.73;;
78187;SDS011;67456;41.872;21.602;2024-01-11T07:25:14;15.98;;;8.32;;
78187;SDS011;67456;41.872;21.602;2024-01-11T07:27:40;16.10;;;8.50;;
78187;SDS011;67456;41.872;21.602;2024-01-11T07:30:06;13.60;;;8.25;;
78187;SDS011;67456;41.872;21.602;2024-01-11T07:32:33;16.60;;;8.55;;
78187;SDS011;67456;41.872;21.602;2024-01-11T07:34:59;21.27;;;11.93;;
78187;SDS011;67456;41.872;21.602;2024-01-11T07:37:26;23.23;;;12.63;;
78187;SDS011;67456;41.872;21.602;2024-01-11T07:39:53;17.98;;;10.45;;
78187;SDS011;67456;41.872;21.602;2024-01-11T07:42:19;17.25;;;9.50;;
78187;SDS011;67456;41.872;21.602;2024-01-11T07:44:45;14.60;;;9.18;;
78187;SDS011;67456;41.872;21.602;2024-01-11T07:47:11;15.75;;;9.32;;
78187;SDS011;67456;41.872;21.602;2024-01-11T07:49:37;18.42;;;11.00;;
78187;SDS011;67456;41.872;21.602;2024-01-11T07:52:04;18.55;;;10.73;;
78187;SDS011;67456;41.872;21.602;2024-01-11T07:54:30;15.60;;;10.18;;
78187;SDS011;67456;41.872;21.602;2024-01-11T07:56:57;15.35;;;9.13;;
78187;SDS011;67456;41.872;21.602;2024-01-11T07:59:23;31.92;;;15.32;;
78187;SDS011;67456;41.872;21.602;2024-01-11T08:01:49;16.33;;;10.02;;
78187;SDS011;67456;41.872;21.602;2024-01-11T08:04:17;21.98;;;12.70;;
78187;SDS011;67456;41.872;21.602;2024-01-11T08:06:44;21.55;;;10.88;;
78187;SDS011;67456;41.872;21.602;2024-01-11T08:09:10;18.50;;;10.30;;
78187;SDS011;67456;41.872;21.602;2024-01-11T08:11:38;21.55;;;10.93;;
78187;SDS011;67456;41.872;21.602;2024-01-11T08:14:06;15.50;;;8.95;;
78187;SDS011;67456;41.872;21.602;2024-01-11T08:16:32;14.40;;;9.02;;
78187;SDS011;67456;41.872;21.602;2024-01-11T08:18:58;16.05;;;9.60;;
78187;SDS011;67456;41.872;21.602;2024-01-11T08:21:26;16.75;;;9.45;;
78187;SDS011;67456;41.872;21.602;2024-01-11T08:23:53;16.55;;;9.10;;
78187;SDS011;67456;41.872;21.602;2024-01-11T08:26:20;15.77;;;9.60;;
78187;SDS011;67456;41.872;21.602;2024-01-11T08:28:47;16.30;;;9.90;;
78187;SDS011;67456;41.872;21.602;2024-01-11T08:31:13;17.38;;;11.15;;
78187;SDS011;67456;41.872;21.602;2024-01-11T08:33:39;16.83;;;9.55;;
78187;SDS011;67456;41.872;21.602;2024-01-11T08:36:06;17.35;;;9.60;;
78187;SDS011;67456;41.872;21.602;2024-01-11T08:38:32;17.42;;;10.02;;
78187;SDS011;67456;41.872;21.602;2024-01-11T08:40:59;14.13;;;9.13;;
78187;SDS011;67456;41.872;21.602;2024-01-11T08:43:25;17.42;;;9.40;;
78187;SDS011;67456;41.872;21.602;2024-01-11T08:45:52;16.38;;;10.10;;
78187;SDS011;67456;41.872;21.602;2024-01-11T08:48:18;14.63;;;9.13;;
78187;SDS011;67456;41.872;21.602;2024-01-11T08:50:44;14.55;;;9.07;;
78187;SDS011;67456;41.872;21.602;2024-01-11T08:53:11;13.50;;;8.85;;
78187;SDS011;67456;41.872;21.602;2024-01-11T08:55:37;17.10;;;9.00;;
78187;SDS011;67456;41.872;21.602;2024-01-11T08:58:03;14.60;;;9.00;;
78187;SDS011;67456;41.872;21.602;2024-01-11T09:00:29;16.35;;;9.95;;
78187;SDS011;67456;41.872;21.602;2024-01-11T09:02:55;15.10;;;8.95;;
78187;SDS011;67456;41.872;21.602;2024-01-11T09:05:22;15.00;;;9.30;;
78187;SDS011;67456;41.872;21.602;2024-01-11T09:07:48;12.20;;;8.35;;
78187;SDS011;67456;41.872;21.602;2024-01-11T09:10:14;17.45;;;10.60;;
78187;SDS011;67456;41.872;21.602;2024-01-11T09:12:41;15.45;;;9.48;;
78187;SDS011;67456;41.872;21.602;2024-01-11T09:15:07;18.63;;;9.77;;
78187;SDS011;67456;41.872;21.602;2024-01-11T09:17:33;15.93;;;9.35;;
78187;SDS011;67456;41.872;21.602;2024-01-11T09:20:00;17.92;;;9.95;;
78187;SDS011;67456;41.872;21.602;2024-01-11T09:22:26;15.30;;;9.20;;
78187;SDS011;67456;41.872;21.602;2024-01-11T09:24:52;15.65;;;9.23;;
78187;SDS011;67456;41.872;21.602;2024-01-11T09:27:19;16.65;;;10.63;;
78187;SDS011;67456;41.872;21.602;2024-01-11T09:29:45;15.15;;;10.50;;
78187;SDS011;67456;41.872;21.602;2024-01-11T09:32:12;16.70;;;10.20;;
78187;SDS011;67456;41.872;21.602;2024-01-11T09:34:38;21.30;;;12.23;;
78187;SDS011;67456;41.872;21.602;2024-01-11T09:37:04;20.48;;;11.63;;
78187;SDS011;67456;41.872;21.602;2024-01-11T09:39:30;17.95;;;10.85;;
78187;SDS011;67456;41.872;21.602;2024-01-11T09:42:06;15.82;;;10.43;;
78187;SDS011;67456;41.872;21.602;2024-01-11T09:44:34;16.38;;;9.85;;
78187;SDS011;67456;41.872;21.602;2024-01-11T09:47:01;17.35;;;11.13;;
78187;SDS011;67456;41.872;21.602;2024-01-11T09:49:27;21.50;;;12.52;;
78187;SDS011;67456;41.872;21.602;2024-01-11T09:51:54;23.27;;;14.10;;
78187;SDS011;67456;41.872;21.602;2024-01-11T09:54:23;17.40;;;10.48;;
78187;SDS011;67456;41.872;21.602;2024-01-11T09:56:50;15.98;;;10.57;;
78187;SDS011;67456;41.872;21.602;2024-01-11T09:59:18;16.20;;;10.00;;
78187;SDS011;67456;41.872;21.602;2024-01-11T10:01:47;17.25;;;10.60;;
78187;SDS011;67456;41.872;21.602;2024-01-11T10:04:14;22.20;;;13.40;;
78187;SDS011;67456;41.872;21.602;2024-01-11T10:06:41;18.98;;;11.52;;
78187;SDS011;67456;41.872;21.602;2024-01-11T13:58:42;43.60;;;26.63;;
78187;SDS011;67456;41.872;21.602;2024-01-11T14:01:11;35.70;;;22.90;;
78187;SDS011;67456;41.872;21.602;2024-01-11T14:03:38;41.30;;;24.75;;
78187;SDS011;67456;41.872;21.602;2024-01-11T14:06:04;39.65;;;24.33;;
78187;SDS011;67456;41.872;21.602;2024-01-11T14:08:31;41.15;;;23.88;;
78187;SDS011;67456;41.872;21.602;2024-01-11T14:10:57;41.28;;;24.30;;
78187;SDS011;67456;41.872;21.602;2024-01-11T14:13:23;40.90;;;23.70;;
78187;SDS011;67456;41.872;21.602;2024-01-11T14:15:49;43.55;;;25.75;;
78187;SDS011;67456;41.872;21.602;2024-01-11T14:18:16;40.40;;;24.25;;
78187;SDS011;67456;41.872;21.602;2024-01-11T14:20:43;41.53;;;24.48;;
78187;SDS011;67456;41.872;21.602;2024-01-11T14:23:10;42.17;;;24.25;;
78187;SDS011;67456;41.872;21.602;2024-01-11T14:25:36;46.95;;;25.17;;
78187;SDS011;67456;41.872;21.602;2024-01-11T14:28:02;41.65;;;24.23;;
78187;SDS011;67456;41.872;21.602;2024-01-11T14:30:29;51.92;;;27.17;;
78187;SDS011;67456;41.872;21.602;2024-01-11T14:32:55;60.20;;;28.67;;
78187;SDS011;67456;41.872;21.602;2024-01-11T14:35:21;46.47;;;27.05;;
78187;SDS011;67456;41.872;21.602;2024-01-11T14:37:48;48.13;;;25.85;;
78187;SDS011;67456;41.872;21.602;2024-01-11T14:40:14;42.63;;;25.15;;
78187;SDS011;67456;41.872;21.602;2024-01-11T14:42:40;46.47;;;25.27;;
78187;SDS011;67456;41.872;21.602;2024-01-11T14:45:06;47.58;;;26.40;;
78187;SDS011;67456;41.872;21.602;2024-01-11T14:47:33;54.13;;;28.65;;
78187;SDS011;67456;41.872;21.602;2024-01-11T14:49:59;52.50;;;26.15;;
78187;SDS011;67456;41.872;21.602;2024-01-11T14:52:26;49.83;;;26.23;;
78187;SDS011;67456;41.872;21.602;2024-01-11T14:54:52;48.17;;;28.98;;
78187;SDS011;67456;41.872;21.602;2024-01-11T14:57:18;51.88;;;28.80;;
78187;SDS011;67456;41.872;21.602;2024-01-11T14:59:46;54.38;;;30.73;;
78187;SDS011;67456;41.872;21.602;2024-01-11T15:02:12;58.10;;;34.20;;
78187;SDS011;67456;41.872;21.602;2024-01-11T15:04:39;56.83;;;31.55;;
78187;SDS011;67456;41.872;21.602;2024-01-11T15:07:05;50.22;;;28.10;;
78187;SDS011;67456;41.872;21.602;2024-01-11T15:09:31;43.17;;;25.73;;
78187;SDS011;67456;41.872;21.602;2024-01-11T15:11:58;47.33;;;26.27;;
78187;SDS011;67456;41.872;21.602;2024-01-11T15:14:25;44.90;;;25.98;;
78187;SDS011;67456;41.872;21.602;2024-01-11T15:16:52;45.90;;;26.10;;
78187;SDS011;67456;41.872;21.602;2024-01-11T15:19:18;42.15;;;24.65;;
78187;SDS011;67456;41.872;21.602;2024-01-11T15:21:44;48.90;;;25.67;;
78187;SDS011;67456;41.872;21.602;2024-01-11T15:24:10;45.50;;;26.58;;
78187;SDS011;67456;41.872;21.602;2024-01-11T15:26:36;44.75;;;25.40;;
78187;SDS011;67456;41.872;21.602;2024-01-11T15:29:03;45.72;;;25.85;;
78187;SDS011;67456;41.872;21.602;2024-01-11T15:31:30;47.17;;;26.95;;
78187;SDS011;67456;41.872;21.602;2024-01-11T15:33:57;48.50;;;26.00;;
78187;SDS011;67456;41.872;21.602;2024-01-11T15:36:23;49.47;;;28.65;;
78187;SDS011;67456;41.872;21.602;2024-01-11T15:38:49;65.30;;;34.70;;
78187;SDS011;67456;41.872;21.602;2024-01-11T15:41:16;50.55;;;28.20;;
78187;SDS011;67456;41.872;21.602;2024-01-11T15:43:42;48.55;;;27.77;;
78187;SDS011;67456;41.872;21.602;2024-01-11T15:46:12;49.25;;;27.58;;
78187;SDS011;67456;41.872;21.602;2024-01-11T15:48:38;51.22;;;28.10;;
78187;SDS011;67456;41.872;21.602;2024-01-11T15:51:04;43.33;;;26.17;;
78187;SDS011;67456;41.872;21.602;2024-01-11T15:53:31;51.65;;;28.92;;
78187;SDS011;67456;41.872;21.602;2024-01-11T15:55:57;51.63;;;30.10;;
78187;SDS011;67456;41.872;21.602;2024-01-11T15:58:23;63.25;;;31.73;;
78187;SDS011;67456;41.872;21.602;2024-01-11T16:00:49;63.05;;;35.10;;
78187;SDS011;67456;41.872;21.602;2024-01-11T16:03:15;63.65;;;32.42;;
78187;SDS011;67456;41.872;21.602;2024-01-11T16:05:41;55.85;;;31.42;;
78187;SDS011;67456;41.872;21.602;2024-01-11T16:08:08;53.50;;;31.15;;
78187;SDS011;67456;41.872;21.602;2024-01-11T16:10:34;53.33;;;29.73;;
78187;SDS011;67456;41.872;21.602;2024-01-11T16:13:01;54.70;;;29.75;;
78187;SDS011;67456;41.872;21.602;2024-01-11T16:15:27;53.70;;;31.30;;
78187;SDS011;67456;41.872;21.602;2024-01-11T16:17:53;54.22;;;31.85;;
78187;SDS011;67456;41.872;21.602;2024-01-11T16:20:19;51.63;;;28.30;;
78187;SDS011;67456;41.872;21.602;2024-01-11T16:22:46;50.83;;;28.25;;
78187;SDS011;67456;41.872;21.602;2024-01-11T16:25:12;56.22;;;30.83;;
78187;SDS011;67456;41.872;21.602;2024-01-11T16:27:38;66.03;;;34.72;;
78187;SDS011;67456;41.872;21.602;2024-01-11T16:30:05;54.22;;;30.65;;
78187;SDS011;67456;41.872;21.602;2024-01-11T16:32:31;45.65;;;29.70;;
78187;SDS011;67456;41.872;21.602;2024-01-11T16:34:59;45.95;;;28.17;;
78187;SDS011;67456;41.872;21.602;2024-01-11T16:37:25;51.90;;;30.80;;
78187;SDS011;67456;41.872;21.602;2024-01-11T16:39:51;44.90;;;26.92;;
78187;SDS011;67456;41.872;21.602;2024-01-11T16:42:18;49.70;;;30.20;;
78187;SDS011;67456;41.872;21.602;2024-01-11T16:44:45;46.67;;;27.63;;
78187;SDS011;67456;41.872;21.602;2024-01-11T16:47:12;53.88;;;29.88;;
78187;SDS011;67456;41.872;21.602;2024-01-11T16:49:40;46.58;;;26.42;;
78187;SDS011;67456;41.872;21.602;2024-01-11T16:52:07;41.55;;;23.67;;
78187;SDS011;67456;41.872;21.602;2024-01-11T16:54:33;41.47;;;24.70;;
78187;SDS011;67456;41.872;21.602;2024-01-11T16:56:59;40.97;;;22.92;;
78187;SDS011;67456;41.872;21.602;2024-01-11T16:59:26;46.10;;;25.10;;
78187;SDS011;67456;41.872;21.602;2024-01-11T17:01:52;46.35;;;24.95;;
78187;SDS011;67456;41.872;21.602;2024-01-11T17:04:18;53.92;;;27.88;;
78187;SDS011;67456;41.872;21.602;2024-01-11T17:06:44;47.83;;;25.70;;
78187;SDS011;67456;41.872;21.602;2024-01-11T17:09:11;42.40;;;24.27;;
78187;SDS011;67456;41.872;21.602;2024-01-11T17:11:40;44.13;;;24.25;;
78187;SDS011;67456;41.872;21.602;2024-01-11T17:14:08;39.47;;;23.58;;
78187;SDS011;67456;41.872;21.602;2024-01-11T17:16:34;40.10;;;20.67;;
78187;SDS011;67456;41.872;21.602;2024-01-11T17:19:00;42.58;;;22.58;;
78187;SDS011;67456;41.872;21.602;2024-01-11T17:21:30;44.88;;;25.85;;
78187;SDS011;67456;41.872;21.602;2024-01-11T17:23:56;44.35;;;23.10;;
78187;SDS011;67456;41.872;21.602;2024-01-11T17:26:22;47.85;;;25.73;;
78187;SDS011;67456;41.872;21.602;2024-01-11T17:28:49;40.95;;;20.63;;
78187;SDS011;67456;41.872;21.602;2024-01-11T17:31:15;38.10;;;20.95;;
78187;SDS011;67456;41.872;21.602;2024-01-11T17:33:41;40.55;;;21.65;;
78187;SDS011;67456;41.872;21.602;2024-01-11T17:36:07;38.28;;;22.85;;
78187;SDS011;67456;41.872;21.602;2024-01-11T17:38:34;35.92;;;19.77;;
78187;SDS011;67456;41.872;21.602;2024-01-11T17:41:01;44.80;;;25.25;;
78187;SDS011;67456;41.872;21.602;2024-01-11T17:43:27;40.05;;;22.45;;
78187;SDS011;67456;41.872;21.602;2024-01-11T17:45:53;35.92;;;20.05;;
78187;SDS011;67456;41.872;21.602;2024-01-11T17:48:19;33.33;;;19.58;;
78187;SDS011;67456;41.872;21.602;2024-01-11T17:50:46;67.88;;;33.70;;
78187;SDS011;67456;41.872;21.602;2024-01-11T17:53:15;60.05;;;32.78;;
78187;SDS011;67456;41.872;21.602;2024-01-11T17:55:41;52.88;;;26.25;;